Startpagina
METAR-TAF:

METAR-TAF

Vliegvelden :

Zielona Góra, Polen

breedte: 52-08-19N, lengte: 015-47-55E, hoogte: 59 m

Actueel weer

Dit bericht is 7 minuten geleden gemaakt, om 18:30 UTC
Wind 6 kt uit het zuiden
Temperatuur 8°C
Vochtigheid 61%
Druk 1014 hPa
Zicht 10 km of meer
geen wolken onder 1500 m en geen cumulonimbus

METAR: EPZG 171830Z 19006KT CAVOK 08/01 Q1014

Tijdstip: 19:37 (18:37 UTC)

Verwachting

Dit bericht is 1 uur en het 7 minuten geleden gemaakt, om 17:30 UTC
Verwachting geldig van 17 om 18 UTC tot 18 om 03 UTC
Wind 7 kt uit het zuidzuidwesten
Zicht 10 km of meer
geen wolken onder 1500 m en geen cumulonimbus
Wijzigt naar
van 17 om 22 UTC tot 18 om 01 UTC
Wind 10 kt uit het westen

TAF: EPZG 171730Z 1718/1803 20007KT CAVOK BECMG 1722/1801 26010KT

Waarnemingen en weersverwachtingen van meer dan 4000 vliegvelden (METAR en TAF).

De beschikbare stations zijn de gele en rode punten op de kaart.

Ga met uw muis naar het station om de naam te zien.

Klik dan om waarnemingen en weersverwachtingen te zien.

kaart wijzigen: klik op de groene knoppen met een zwart kruis om in te zoomen, op de groene knop met een streepje om uit te zoomen of op de groene pijlen voor aangrenzende kaarten.


METAR-TAF: